Searsport, Maine
Current Conditions -  °F | °C
As of 2:53 AM on Sunday 26 Oct 2014 (Local Time) from KBGR Reporting Station
Light Rain Light Rain  
Wind Chill: 48°   Ceiling: 6000
Heat Index: 48°   Visibility: 8mi
Dew Point: 47°   Wind: 0mph
Humidity: 96%   Direction: NA
Pressure: 29.41"   Gusts: NA
Location:  44.46°N, 68.92°W
Report Text: KBGR 260653Z 00000KT 8SM -RA OVC060 09/08 A2941 RMK AO2 SLP956 P0002 T00890083
Loading
Personal Weather Stations






























Interactive Weather Map
Tropical Storm Tracking
New forecast layout! Learn more

10-Day Weather Forecast

Advertisements
Track Severe Weather on mobile